createdAt,value
2018-06-14T00:01:40.123Z,24.72
2018-06-14T00:16:40.151Z,24.72
2018-06-14T00:31:40.104Z,24.63
2018-06-14T00:46:40.318Z,23.94
2018-06-14T01:01:40.512Z,22.58
2018-06-14T01:31:40.267Z,23.39
2018-06-14T01:46:40.931Z,20.29
2018-06-14T02:01:40.902Z,19.96
2018-06-14T02:31:39.898Z,23.58
2018-06-14T02:46:40.331Z,23.92
2018-06-14T03:01:40.365Z,24.03
2018-06-14T03:16:40.060Z,22.80
2018-06-14T03:46:40.777Z,19.57
2018-06-14T04:01:40.687Z,19.51
2018-06-14T04:16:40.714Z,19.78
2018-06-14T04:31:41.499Z,20.04
2018-06-14T04:46:41.088Z,20.05
2018-06-14T05:01:39.915Z,20.39
2018-06-14T05:16:39.916Z,21.23
2018-06-14T05:31:40.584Z,19.04
2018-06-14T06:01:40.518Z,24.71
2018-06-14T06:16:40.475Z,24.20
2018-06-14T06:31:40.458Z,23.81
2018-06-14T06:46:40.910Z,23.63
2018-06-14T07:01:40.978Z,23.15
2018-06-14T09:16:41.052Z,23.16
2018-06-14T09:31:40.719Z,23.27
2018-06-14T10:01:39.986Z,23.26
2018-06-14T10:16:39.994Z,23.41
2018-06-14T10:31:45.968Z,25.01
2018-06-14T10:46:40.424Z,26.32
2018-06-14T11:01:40.392Z,27.30
2018-06-14T11:16:40.460Z,27.61
2018-06-14T11:31:40.447Z,27.07
2018-06-14T11:46:40.839Z,26.44
2018-06-14T12:01:40.880Z,27.24
2018-06-14T12:16:40.576Z,25.86
2018-06-14T12:31:41.868Z,25.44
2018-06-14T12:46:40.438Z,25.29
2018-06-14T13:01:39.997Z,24.07
2018-06-14T13:16:41.617Z,23.30
2018-06-14T13:31:39.569Z,22.86
2018-06-14T13:46:41.996Z,22.31
2018-06-14T17:16:40.971Z,22.92
2018-06-14T17:31:41.411Z,24.02
2018-06-14T17:46:41.540Z,24.28
2018-06-14T18:01:43.471Z,24.09
2018-06-14T18:16:41.133Z,22.99
2018-06-14T18:31:41.771Z,23.04
2018-06-14T18:46:46.635Z,22.26
2018-06-14T19:16:40.663Z,23.29
2018-06-14T19:31:41.351Z,24.33
2018-06-14T19:46:41.110Z,24.67
2018-06-14T20:01:41.106Z,24.70
2018-06-14T20:16:41.128Z,24.75
2018-06-14T20:31:40.552Z,24.18
2018-06-14T20:46:40.586Z,24.39
2018-06-14T21:01:40.481Z,24.46
2018-06-14T21:16:40.516Z,24.48
2018-06-14T21:31:40.965Z,24.40
2018-06-14T21:46:40.371Z,24.36
2018-06-14T22:01:42.465Z,24.31
2018-06-14T22:16:42.325Z,24.18
2018-06-14T22:31:40.305Z,24.18
2018-06-14T22:46:43.276Z,24.16
2018-06-14T23:01:49.295Z,24.14
2018-06-14T23:16:41.271Z,24.20
2018-06-14T23:31:40.743Z,24.23
2018-06-14T23:46:40.686Z,24.16
